createdAt,value
2019-04-26T00:01:23.127Z,53.47
2019-04-26T00:03:49.139Z,53.91
2019-04-26T00:06:16.574Z,54.05
2019-04-26T00:08:42.984Z,54.09
2019-04-26T00:11:09.640Z,54.20
2019-04-26T00:13:38.587Z,54.59
2019-04-26T00:16:04.942Z,55.01
2019-04-26T00:18:30.842Z,55.70
2019-04-26T00:20:57.089Z,54.89
2019-04-26T00:23:23.092Z,54.74
2019-04-26T00:25:49.223Z,55.13
2019-04-26T00:28:15.305Z,55.42
2019-04-26T00:30:41.555Z,55.53
2019-04-26T00:33:07.620Z,55.84
2019-04-26T00:35:33.526Z,55.57
2019-04-26T00:37:59.433Z,55.63
2019-04-26T00:40:25.851Z,55.58
2019-04-26T00:42:53.311Z,56.33
2019-04-26T00:45:20.982Z,56.51
2019-04-26T00:47:49.512Z,57.17
2019-04-26T00:50:15.722Z,57.50
2019-04-26T00:52:42.488Z,58.42
2019-04-26T00:55:09.967Z,58.42
2019-04-26T00:57:36.507Z,58.33
2019-04-26T01:00:04.476Z,58.49
2019-04-26T01:02:30.524Z,58.76
2019-04-26T01:04:56.546Z,58.84
2019-04-26T01:07:23.241Z,59.25
2019-04-26T01:09:49.288Z,59.59
2019-04-26T01:12:16.424Z,59.90
2019-04-26T01:14:42.779Z,60.05
2019-04-26T01:17:08.707Z,60.07
2019-04-26T01:19:37.206Z,60.29
2019-04-26T01:22:06.978Z,60.38
2019-04-26T01:24:34.235Z,60.26
2019-04-26T01:27:02.874Z,60.51
2019-04-26T01:29:29.483Z,60.81
2019-04-26T01:32:05.301Z,60.89
2019-04-26T01:34:32.797Z,60.84
2019-04-26T01:37:00.745Z,61.20
2019-04-26T01:39:27.897Z,61.60
2019-04-26T01:41:54.171Z,61.74
2019-04-26T01:44:22.997Z,62.02
2019-04-26T01:46:49.459Z,62.37
2019-04-26T01:49:18.557Z,62.34
2019-04-26T01:51:51.215Z,62.45
2019-04-26T01:54:22.469Z,62.76
2019-04-26T01:56:52.369Z,62.23
2019-04-26T01:59:20.989Z,62.63
2019-04-26T02:01:48.020Z,62.69
2019-04-26T02:04:14.062Z,62.60
2019-04-26T02:06:40.104Z,62.86
2019-04-26T02:09:06.644Z,63.45
2019-04-26T02:11:33.153Z,63.04
2019-04-26T02:14:00.100Z,63.57
2019-04-26T02:16:27.018Z,63.69
2019-04-26T02:18:52.971Z,63.82
2019-04-26T02:21:19.341Z,63.56
2019-04-26T02:23:45.862Z,63.55
2019-04-26T02:26:13.468Z,63.54
2019-04-26T02:28:39.416Z,63.92
2019-04-26T02:31:05.485Z,64.00
2019-04-26T02:33:33.311Z,64.35
2019-04-26T02:35:59.679Z,64.42
2019-04-26T02:38:27.939Z,64.76
2019-04-26T02:40:53.963Z,64.86
2019-04-26T02:43:23.372Z,64.94
2019-04-26T02:45:50.507Z,65.20
2019-04-26T02:48:19.898Z,65.34
2019-04-26T02:50:52.424Z,65.65
2019-04-26T02:53:35.367Z,65.74
2019-04-26T02:56:15.602Z,65.81
2019-04-26T02:58:45.279Z,65.68
2019-04-26T03:01:11.230Z,65.52
2019-04-26T03:03:38.139Z,65.16
2019-04-26T03:06:05.650Z,65.06
2019-04-26T03:08:35.824Z,65.27
2019-04-26T03:11:06.674Z,65.49
2019-04-26T03:13:38.078Z,65.56
2019-04-26T03:16:08.183Z,65.67
2019-04-26T03:18:39.454Z,65.98
2019-04-26T03:21:37.392Z,65.98
2019-04-26T03:24:16.290Z,65.79
2019-04-26T03:27:07.449Z,66.45
2019-04-26T03:29:52.562Z,66.54
2019-04-26T03:32:25.582Z,67.41
2019-04-26T03:35:04.321Z,67.50
2019-04-26T03:37:36.020Z,67.63
2019-04-26T03:40:11.895Z,68.08
2019-04-26T03:42:42.716Z,68.00
2019-04-26T03:45:33.018Z,68.29
2019-04-26T03:48:24.880Z,68.32
2019-04-26T03:51:00.630Z,68.44
2019-04-26T03:53:35.475Z,68.96
2019-04-26T03:56:17.205Z,68.54
2019-04-26T03:58:46.918Z,69.02
2019-04-26T04:01:13.369Z,68.81
2019-04-26T04:03:43.633Z,68.24
2019-04-26T04:06:12.587Z,68.12
2019-04-26T04:08:51.135Z,67.30
2019-04-26T04:11:20.947Z,68.00
2019-04-26T04:13:53.612Z,68.44
2019-04-26T04:16:32.486Z,68.08
2019-04-26T04:19:07.825Z,68.13
2019-04-26T04:22:00.577Z,68.03
2019-04-26T04:24:32.907Z,67.44
2019-04-26T04:27:11.604Z,66.59
2019-04-26T04:29:55.592Z,65.34
2019-04-26T04:32:34.557Z,64.30
2019-04-26T04:35:06.756Z,64.37
2019-04-26T04:37:52.659Z,62.94
2019-04-26T04:40:07.658Z,61.50
2019-04-26T04:42:48.101Z,59.68
2019-04-26T04:45:27.353Z,59.13
2019-04-26T04:48:12.431Z,58.04
2019-04-26T04:50:43.324Z,57.21
2019-04-26T04:53:28.688Z,56.15
2019-04-26T04:56:20.882Z,56.17
2019-04-26T04:58:57.497Z,57.24
2019-04-26T05:01:39.439Z,58.55
2019-04-26T05:04:15.108Z,59.33
2019-04-26T05:06:57.019Z,59.38
2019-04-26T05:09:26.945Z,58.68
2019-04-26T05:12:05.514Z,57.29
2019-04-26T05:14:56.508Z,54.44
2019-04-26T05:17:46.158Z,52.76
2019-04-26T05:20:31.065Z,52.24
2019-04-26T05:23:10.040Z,52.49
2019-04-26T05:25:59.699Z,52.31
2019-04-26T05:28:35.447Z,51.69
2019-04-26T05:31:24.477Z,52.97
2019-04-26T05:34:14.940Z,54.06
2019-04-26T05:37:03.112Z,54.18
2019-04-26T05:39:38.762Z,53.87
2019-04-26T05:42:11.651Z,52.92
2019-04-26T05:44:44.123Z,52.48
2019-04-26T05:47:27.208Z,52.81
2019-04-26T05:50:05.974Z,51.72
2019-04-26T05:52:55.746Z,50.56
2019-04-26T05:55:46.739Z,46.82
2019-04-26T05:58:21.984Z,45.43
2019-04-26T06:01:14.886Z,44.49
2019-04-26T06:03:50.873Z,44.71
2019-04-26T06:06:39.012Z,46.11
2019-04-26T06:09:08.929Z,44.12
2019-04-26T06:11:44.444Z,45.35
2019-04-26T06:14:19.969Z,48.31
2019-04-26T06:17:01.839Z,50.03
2019-04-26T06:19:31.753Z,51.29
2019-04-26T06:22:13.643Z,52.24
2019-04-26T06:25:03.391Z,52.88
2019-04-26T06:27:33.128Z,49.92
2019-04-26T06:30:19.011Z,45.84
2019-04-26T06:33:20.651Z,42.33
2019-04-26T06:35:49.893Z,40.14
2019-04-26T06:38:44.135Z,39.38
2019-04-26T06:41:37.632Z,38.04
2019-04-26T06:44:13.176Z,39.11
2019-04-26T06:47:00.108Z,42.22
2019-04-26T06:49:38.948Z,44.42
2019-04-26T06:52:18.043Z,43.21
2019-04-26T06:55:13.968Z,39.88
2019-04-26T06:58:13.108Z,38.88
2019-04-26T07:00:45.659Z,38.33
2019-04-26T07:03:49.172Z,39.24
2019-04-26T07:06:19.001Z,40.79
2019-04-26T07:08:57.362Z,41.26
2019-04-26T07:11:21.505Z,40.53
2019-04-26T07:14:08.178Z,40.23
2019-04-26T07:16:53.030Z,40.79
2019-04-26T07:19:28.789Z,39.88
2019-04-26T07:21:58.639Z,40.67
2019-04-26T07:24:48.528Z,40.34
2019-04-26T07:27:31.099Z,40.83
2019-04-26T07:30:15.498Z,39.68
2019-04-26T07:32:51.384Z,41.37
2019-04-26T07:35:39.051Z,41.53
2019-04-26T07:38:15.122Z,39.48
2019-04-26T07:41:01.629Z,39.92
2019-04-26T07:43:53.183Z,40.93
2019-04-26T07:46:29.042Z,41.25
2019-04-26T07:49:32.469Z,41.85
2019-04-26T07:52:23.762Z,42.64
2019-04-26T07:55:06.567Z,43.81
2019-04-26T07:57:43.317Z,45.18
2019-04-26T08:00:18.793Z,45.20
2019-04-26T08:02:51.255Z,46.01
2019-04-26T08:05:32.815Z,45.04
2019-04-26T08:08:06.892Z,45.42
2019-04-26T08:10:39.683Z,46.03
2019-04-26T08:13:15.290Z,46.91
2019-04-26T08:15:45.228Z,46.59
2019-04-26T08:18:15.803Z,46.37
2019-04-26T08:20:48.164Z,45.89
2019-04-26T08:23:38.119Z,46.22
2019-04-26T08:25:48.235Z,46.34
2019-04-26T08:28:17.906Z,46.56
2019-04-26T08:30:47.129Z,47.37
2019-04-26T08:33:18.075Z,47.60
2019-04-26T08:35:48.934Z,46.23
2019-04-26T08:38:22.317Z,44.64
2019-04-26T08:40:43.926Z,44.93
2019-04-26T08:43:10.931Z,45.86
2019-04-26T08:45:40.514Z,46.81
2019-04-26T08:48:09.373Z,46.35
2019-04-26T08:50:36.673Z,46.84
2019-04-26T08:53:03.574Z,47.17
2019-04-26T08:55:33.158Z,47.41
2019-04-26T08:58:02.993Z,48.83
2019-04-26T09:00:32.463Z,49.05
2019-04-26T09:03:10.991Z,48.81
2019-04-26T09:05:32.326Z,49.68
2019-04-26T09:07:59.145Z,49.93
2019-04-26T09:10:28.885Z,49.71
2019-04-26T09:12:58.588Z,50.16
2019-04-26T09:15:40.705Z,51.12
2019-04-26T09:18:06.974Z,50.64
2019-04-26T09:20:32.879Z,50.82
2019-04-26T09:23:03.842Z,50.90
2019-04-26T09:25:30.227Z,50.66
2019-04-26T09:27:55.749Z,50.71
2019-04-26T09:30:33.328Z,50.66
2019-04-26T09:32:49.901Z,50.66
2019-04-26T09:35:16.404Z,51.50
2019-04-26T09:37:42.349Z,51.15
2019-04-26T09:40:10.640Z,51.34
2019-04-26T09:42:39.279Z,51.69
2019-04-26T09:45:06.903Z,52.17
2019-04-26T09:47:33.113Z,52.05
2019-04-26T09:49:59.042Z,52.89
2019-04-26T09:52:25.153Z,52.79
2019-04-26T09:54:51.057Z,53.24
2019-04-26T09:57:16.985Z,53.02
2019-04-26T09:59:42.885Z,52.78
2019-04-26T10:02:10.831Z,53.13
2019-04-26T10:04:36.733Z,54.02
2019-04-26T10:07:04.068Z,54.50
2019-04-26T10:09:30.975Z,53.48
2019-04-26T10:11:57.068Z,53.47
2019-04-26T10:14:24.057Z,54.04
2019-04-26T10:16:49.998Z,54.21
2019-04-26T10:19:16.005Z,54.23
2019-04-26T10:21:41.950Z,53.69
2019-04-26T10:24:08.425Z,53.66
2019-04-26T10:26:34.733Z,54.54
2019-04-26T10:29:00.777Z,55.55
2019-04-26T10:31:26.711Z,55.32
2019-04-26T10:33:54.632Z,54.76
2019-04-26T10:36:20.739Z,54.92
2019-04-26T10:38:46.964Z,54.32
2019-04-26T10:41:13.043Z,53.93
2019-04-26T10:43:39.012Z,53.92
2019-04-26T10:46:05.032Z,54.06
2019-04-26T10:48:31.162Z,53.58
2019-04-26T10:50:57.179Z,54.97
2019-04-26T10:53:25.580Z,54.83
2019-04-26T10:55:51.504Z,55.76
2019-04-26T10:58:17.851Z,56.77
2019-04-26T11:00:43.835Z,55.85
2019-04-26T11:03:09.865Z,55.59
2019-04-26T11:05:35.760Z,55.33
2019-04-26T11:08:01.692Z,55.34
2019-04-26T11:10:29.042Z,56.02
2019-04-26T11:12:55.053Z,56.11
2019-04-26T11:15:21.091Z,55.84
2019-04-26T11:17:49.901Z,56.34
2019-04-26T11:20:15.085Z,56.12
2019-04-26T11:22:41.037Z,55.54
2019-04-26T11:25:10.404Z,54.91
2019-04-26T11:27:36.338Z,54.99
2019-04-26T11:30:11.701Z,55.57
2019-04-26T11:32:33.166Z,55.72
2019-04-26T11:35:00.470Z,55.88
2019-04-26T11:37:26.541Z,55.64
2019-04-26T11:39:52.805Z,56.94
2019-04-26T11:42:18.763Z,57.10
2019-04-26T11:44:44.949Z,56.53
2019-04-26T11:47:10.857Z,55.85
2019-04-26T11:49:37.404Z,56.41
2019-04-26T11:52:04.646Z,55.98
2019-04-26T11:54:30.598Z,55.92
2019-04-26T11:56:57.800Z,56.17
2019-04-26T11:59:27.093Z,56.40
2019-04-26T12:01:51.705Z,56.04
2019-04-26T12:04:17.636Z,55.93
2019-04-26T12:06:43.533Z,56.40
2019-04-26T12:09:09.734Z,56.56
2019-04-26T12:11:35.827Z,57.40
2019-04-26T12:14:03.953Z,57.83
2019-04-26T12:16:29.911Z,57.73
2019-04-26T12:18:55.911Z,58.20
2019-04-26T12:21:22.026Z,58.23
2019-04-26T12:23:51.314Z,58.74
2019-04-26T12:26:17.329Z,58.04
2019-04-26T12:28:44.011Z,58.63
2019-04-26T12:31:09.973Z,58.38
2019-04-26T12:33:39.027Z,58.77
2019-04-26T12:36:03.706Z,59.49
2019-04-26T12:38:30.092Z,59.21
2019-04-26T12:40:56.797Z,60.13
2019-04-26T12:43:24.596Z,60.90
2019-04-26T12:45:52.543Z,60.33
2019-04-26T12:48:18.682Z,61.36
2019-04-26T12:50:44.628Z,61.82
2019-04-26T12:53:10.526Z,63.04
2019-04-26T12:55:36.791Z,62.81
2019-04-26T12:58:02.906Z,62.60
2019-04-26T13:00:32.973Z,62.30
2019-04-26T13:02:57.063Z,62.32
2019-04-26T13:05:23.044Z,64.32
2019-04-26T13:07:48.946Z,64.32
2019-04-26T13:10:14.990Z,62.90
2019-04-26T13:12:41.146Z,64.36
2019-04-26T13:15:37.226Z,65.54
2019-04-26T13:18:03.222Z,66.14
2019-04-26T13:20:30.278Z,66.37
2019-04-26T13:22:56.395Z,67.91
2019-04-26T13:25:26.567Z,67.49
2019-04-26T13:27:50.155Z,67.45
2019-04-26T13:30:16.554Z,67.92
2019-04-26T13:32:42.632Z,69.21
2019-04-26T13:35:11.340Z,69.21
2019-04-26T13:37:37.027Z,69.34
2019-04-26T13:40:05.452Z,69.91
2019-04-26T13:42:31.583Z,69.83
2019-04-26T13:44:58.713Z,69.91
2019-04-26T13:47:24.621Z,70.25
2019-04-26T13:49:52.355Z,69.71
2019-04-26T13:52:18.525Z,69.32
2019-04-26T13:54:44.586Z,69.00
2019-04-26T13:57:11.240Z,68.11
2019-04-26T13:59:37.514Z,68.14
2019-04-26T14:02:11.431Z,67.58
2019-04-26T14:04:32.644Z,68.02
2019-04-26T14:06:58.544Z,67.21
2019-04-26T14:09:24.818Z,67.57
2019-04-26T14:11:50.734Z,67.43
2019-04-26T14:14:18.472Z,67.57
2019-04-26T14:16:44.445Z,68.78
2019-04-26T14:19:15.227Z,68.74
2019-04-26T14:21:38.490Z,68.79
2019-04-26T14:24:04.593Z,68.71
2019-04-26T14:29:13.849Z,69.54
2019-04-26T14:31:40.737Z,69.96
2019-04-26T14:34:07.141Z,69.62
2019-04-26T14:36:35.041Z,70.37
2019-04-26T14:39:05.991Z,70.55
2019-04-26T14:41:31.232Z,70.98
2019-04-26T14:43:57.876Z,71.60
2019-04-26T14:46:23.908Z,71.90
2019-04-26T14:49:00.981Z,72.13
2019-04-26T14:51:18.659Z,71.94
2019-04-26T14:53:44.896Z,72.66
2019-04-26T14:56:11.108Z,72.35
2019-04-26T14:58:37.197Z,72.45
2019-04-26T15:01:03.429Z,73.23
2019-04-26T15:03:29.386Z,72.99
2019-04-26T15:05:55.466Z,73.08
2019-04-26T15:08:22.614Z,73.20
2019-04-26T15:10:57.596Z,74.30
2019-04-26T15:13:20.772Z,73.38
2019-04-26T15:15:46.256Z,74.12
2019-04-26T15:18:12.464Z,73.30
2019-04-26T15:20:38.488Z,73.96
2019-04-26T15:23:04.489Z,72.80
2019-04-26T15:25:31.793Z,72.18
2019-04-26T15:27:59.443Z,72.50
2019-04-26T15:30:25.546Z,72.66
2019-04-26T15:32:52.908Z,73.30
2019-04-26T15:35:18.995Z,73.14
2019-04-26T15:37:44.977Z,74.00
2019-04-26T15:40:12.788Z,73.77
2019-04-26T15:42:39.018Z,74.07
2019-04-26T15:45:05.336Z,74.11
2019-04-26T15:47:32.054Z,74.84
2019-04-26T15:49:59.195Z,75.06
2019-04-26T15:52:25.258Z,75.15
2019-04-26T15:54:52.865Z,74.80
2019-04-26T15:57:19.372Z,75.05
2019-04-26T15:59:45.624Z,74.85
2019-04-26T16:02:12.454Z,74.93
2019-04-26T16:04:38.709Z,75.48
2019-04-26T16:07:04.659Z,75.97
2019-04-26T16:09:32.475Z,76.49
2019-04-26T16:11:58.782Z,77.03
2019-04-26T16:14:31.302Z,75.79
2019-04-26T16:16:54.103Z,76.10
2019-04-26T16:19:20.210Z,75.60
2019-04-26T16:21:48.253Z,75.30
2019-04-26T16:24:14.145Z,75.59
2019-04-26T16:26:40.076Z,76.02
2019-04-26T16:29:06.048Z,76.52
2019-04-26T16:31:34.128Z,76.38
2019-04-26T16:34:06.104Z,76.19
2019-04-26T16:36:28.102Z,76.92
2019-04-26T16:38:56.749Z,77.02
2019-04-26T16:41:27.161Z,76.34
2019-04-26T16:43:53.334Z,76.38
2019-04-26T16:46:20.648Z,76.14
2019-04-26T16:48:46.899Z,75.83
2019-04-26T16:51:14.438Z,76.09
2019-04-26T16:53:58.811Z,75.84
2019-04-26T16:56:08.598Z,75.17
2019-04-26T16:58:38.385Z,75.66
2019-04-26T17:01:04.536Z,75.99
2019-04-26T17:03:30.690Z,76.19
2019-04-26T17:06:06.709Z,76.70
2019-04-26T17:08:26.462Z,76.59
2019-04-26T17:10:56.776Z,77.05
2019-04-26T17:13:24.022Z,76.81
2019-04-26T17:15:52.095Z,76.94
2019-04-26T17:18:19.332Z,77.36
2019-04-26T17:20:46.714Z,77.97
2019-04-26T17:23:12.859Z,77.96
2019-04-26T17:25:38.802Z,77.61
2019-04-26T17:28:04.704Z,77.76
2019-04-26T17:30:34.538Z,77.76
2019-04-26T17:32:58.678Z,77.87
2019-04-26T17:35:25.394Z,78.15
2019-04-26T17:37:52.924Z,78.81
2019-04-26T17:40:23.620Z,78.95
2019-04-26T17:42:47.663Z,78.53
2019-04-26T17:45:13.809Z,78.40
2019-04-26T17:47:41.864Z,78.53
2019-04-26T17:50:08.108Z,78.10
2019-04-26T17:52:37.589Z,78.33
2019-04-26T17:55:07.806Z,78.17
2019-04-26T17:57:36.633Z,78.71
2019-04-26T18:00:07.958Z,78.22
2019-04-26T18:02:41.256Z,78.45
2019-04-26T18:05:01.568Z,78.61
2019-04-26T18:07:40.246Z,78.71
2019-04-26T18:09:57.074Z,78.45
2019-04-26T18:12:22.306Z,78.90
2019-04-26T18:14:50.409Z,78.81
2019-04-26T18:17:17.452Z,79.02
2019-04-26T18:19:43.482Z,79.20
2019-04-26T18:22:12.353Z,78.67
2019-04-26T18:24:37.351Z,78.73
2019-04-26T18:27:03.587Z,78.87
2019-04-26T18:29:30.467Z,79.29
2019-04-26T18:31:59.063Z,79.15
2019-04-26T18:34:24.881Z,79.34
2019-04-26T18:37:02.018Z,79.73
2019-04-26T18:39:27.408Z,79.96
2019-04-26T18:41:54.271Z,80.26
2019-04-26T18:44:20.168Z,80.62
2019-04-26T18:46:47.278Z,80.06
2019-04-26T18:49:18.161Z,80.16
2019-04-26T18:51:43.289Z,79.92
2019-04-26T18:54:13.357Z,79.84
2019-04-26T18:56:40.514Z,80.42
2019-04-26T18:59:07.311Z,80.33
2019-04-26T19:01:34.679Z,80.00
2019-04-26T19:04:09.554Z,80.19
2019-04-26T19:06:31.829Z,79.86
2019-04-26T19:09:01.532Z,79.58
2019-04-26T19:11:25.741Z,79.73
2019-04-26T19:13:53.133Z,79.90
2019-04-26T19:16:21.439Z,79.51
2019-04-26T19:18:47.824Z,79.48
2019-04-26T19:21:14.348Z,79.53
2019-04-26T19:23:41.554Z,79.35
2019-04-26T19:26:09.407Z,79.00
2019-04-26T19:28:39.924Z,79.20
2019-04-26T19:31:06.180Z,79.50
2019-04-26T19:33:32.222Z,79.58
2019-04-26T19:35:58.303Z,79.17
2019-04-26T19:38:24.341Z,79.25
2019-04-26T19:40:52.051Z,79.14
2019-04-26T19:43:30.297Z,79.10
2019-04-26T19:45:47.220Z,79.26
2019-04-26T19:48:19.212Z,79.14
2019-04-26T19:50:48.517Z,79.33
2019-04-26T19:53:10.340Z,79.19
2019-04-26T19:55:37.030Z,79.11
2019-04-26T19:58:03.196Z,78.48
2019-04-26T20:00:29.232Z,78.77
2019-04-26T20:02:55.349Z,78.60
2019-04-26T20:05:22.542Z,79.26
2019-04-26T20:07:48.683Z,79.01
2019-04-26T20:10:14.807Z,79.24
2019-04-26T20:12:41.337Z,78.64
2019-04-26T20:15:07.829Z,78.97
2019-04-26T20:17:33.815Z,79.11
2019-04-26T20:19:59.767Z,79.54
2019-04-26T20:22:28.667Z,78.78
2019-04-26T20:24:57.331Z,79.35
2019-04-26T20:27:25.244Z,79.64
2019-04-26T20:29:51.625Z,79.53
2019-04-26T20:32:21.182Z,79.18
2019-04-26T20:34:49.346Z,79.17
2019-04-26T20:37:16.204Z,79.35
2019-04-26T20:39:41.983Z,79.67
2019-04-26T20:42:08.109Z,79.57
2019-04-26T20:44:48.253Z,78.85
2019-04-26T20:47:03.354Z,79.04
2019-04-26T20:49:29.556Z,78.86
2019-04-26T20:51:55.653Z,79.10
2019-04-26T20:54:22.446Z,79.32
2019-04-26T20:56:52.509Z,78.53
2019-04-26T20:59:20.110Z,78.84
2019-04-26T21:01:46.617Z,78.50
2019-04-26T21:04:33.832Z,78.83
2019-04-26T21:06:40.523Z,78.62
2019-04-26T21:09:07.049Z,78.89
2019-04-26T21:11:38.192Z,79.02
2019-04-26T21:14:07.452Z,78.39
2019-04-26T21:16:32.344Z,78.44
2019-04-26T21:18:59.472Z,78.47
2019-04-26T21:21:25.465Z,78.54
2019-04-26T21:23:51.467Z,78.68
2019-04-26T21:26:17.515Z,78.98
2019-04-26T21:28:43.935Z,78.69
2019-04-26T21:31:10.155Z,78.47
2019-04-26T21:33:38.983Z,78.91
2019-04-26T21:36:05.831Z,78.69
2019-04-26T21:38:33.358Z,79.02
2019-04-26T21:41:04.386Z,78.87
2019-04-26T21:43:29.549Z,79.05
2019-04-26T21:46:07.306Z,78.81
2019-04-26T21:48:24.481Z,78.48
2019-04-26T21:50:50.539Z,78.29
2019-04-26T21:53:16.646Z,78.34
2019-04-26T21:55:43.465Z,78.48
2019-04-26T21:58:09.467Z,78.45
2019-04-26T22:00:35.453Z,78.20
2019-04-26T22:03:03.859Z,78.69
2019-04-26T22:05:30.080Z,78.96
2019-04-26T22:07:56.088Z,78.87
2019-04-26T22:10:23.489Z,79.04
2019-04-26T22:12:49.758Z,79.34
2019-04-26T22:15:15.786Z,79.48
2019-04-26T22:17:41.804Z,79.57
2019-04-26T22:20:12.912Z,79.34
2019-04-26T22:22:37.489Z,79.19
2019-04-26T22:25:04.975Z,79.61
2019-04-26T22:27:31.158Z,79.27
2019-04-26T22:29:57.160Z,79.36
2019-04-26T22:32:23.104Z,79.23
2019-04-26T22:34:49.278Z,79.05
2019-04-26T22:37:28.825Z,78.65
2019-04-26T22:39:44.398Z,78.98
2019-04-26T22:42:11.549Z,78.47
2019-04-26T22:44:37.574Z,79.21
2019-04-26T22:47:04.850Z,79.06
2019-04-26T22:49:35.060Z,79.09
2019-04-26T22:51:58.905Z,79.37
2019-04-26T22:54:25.902Z,79.37
2019-04-26T22:56:52.050Z,79.45
2019-04-26T22:59:19.699Z,79.05
2019-04-26T23:01:48.676Z,78.65
2019-04-26T23:04:16.267Z,78.63
2019-04-26T23:06:42.454Z,78.85
2019-04-26T23:09:11.621Z,78.79
2019-04-26T23:11:39.486Z,79.24
2019-04-26T23:14:06.113Z,78.78
2019-04-26T23:16:33.575Z,78.94
2019-04-26T23:18:59.773Z,79.13
2019-04-26T23:21:26.708Z,78.70
2019-04-26T23:23:53.454Z,78.25
2019-04-26T23:26:19.529Z,78.93
2019-04-26T23:28:45.453Z,78.29
2019-04-26T23:31:13.322Z,78.10
2019-04-26T23:33:39.449Z,77.64
2019-04-26T23:36:05.382Z,78.50
2019-04-26T23:38:36.148Z,78.90
2019-04-26T23:41:01.134Z,78.56
2019-04-26T23:43:28.136Z,78.49
2019-04-26T23:45:54.166Z,78.95
2019-04-26T23:48:20.199Z,78.63
2019-04-26T23:50:46.139Z,78.70
2019-04-26T23:53:13.855Z,78.14
2019-04-26T23:55:42.481Z,78.23
2019-04-26T23:58:10.690Z,78.71
